Aérodrome d'Ussel-Thalamy

LFCU · Corrèze, Nouvelle-Aquitaine, França

História da METAR LFCU · Aérodrome d'Ussel-Thalamy

Abaixo você vê METARs dos últimos dias. Selecione um ano para navegar pelos METARs mais antigos, a partir do ano 2007.

30 de novembro de 2022

Hora Código Clima Temp. Visibilidade Tecto Vento METAR/SPECI
15:30
V
7 °C 10 km+ 3.300 ft 360° 360° 5 kt SPECI LFLC 301430Z AUTO 36005KT 9999 -RADZ FEW014 OVC033 07/05 Q1019 TEMPO BKN008
16:00
V
7 °C 10 km+ 3.600 ft 350° 350° 6 kt METAR LFLC 301500Z AUTO 35006KT 9999 FEW014 OVC036 07/05 Q1019 TEMPO BKN008
15:30
V
7 °C 10 km+ 3.300 ft 360° 360° 5 kt METAR LFLC 301430Z AUTO 36005KT 9999 -RADZ FEW014 OVC033 07/05 Q1019 TEMPO BKN008
15:00
V
7 °C 10 km+ 3.100 ft 360° 360° 8 kt METAR LFLC 301400Z AUTO 36008KT 9999 -RA FEW019 OVC031 07/05 Q1019 TEMPO BKN008
14:30
V
8 °C 10 km+ 3.700 ft 010° 010° 6 kt METAR LFLC 301330Z AUTO 01006KT 340V040 9999 FEW014 OVC037 08/05 Q1019 TEMPO BKN008
14:00
M
8 °C 10 km+ 1.300 ft 010° 010° 6 kt METAR LFLC 301300Z AUTO 01006KT 330V030 9999 BKN013 OVC038 08/05 Q1019 TEMPO BKN008
13:30
V
8 °C 10 km+ 3.500 ft 360° 360° 8 kt METAR LFLC 301230Z AUTO 36008KT 9999 SCT012 OVC035 08/05 Q1019 TEMPO BKN008
13:00
V
8 °C 10 km+ 3.700 ft 350° 350° 8 kt METAR LFLC 301200Z AUTO 35008KT 9999 SCT013 OVC037 08/05 Q1019 TEMPO BKN008
12:30
M
8 °C 10 km+ 1.100 ft 360° 360° 10 kt METAR LFLC 301130Z AUTO 36010KT 9999 BKN011 BKN034 OVC042 08/05 Q1019 TEMPO BKN008
12:00
I
7 °C 10 km+ 800 ft 360° 360° 8 kt METAR LFLC 301100Z AUTO 36008KT 330V030 9999 BKN008 BKN012 OVC038 07/06 Q1019 NOSIG
11:30
I
7 °C 10 km+ 800 ft 350° 350° 8 kt METAR LFLC 301030Z AUTO 35008KT 9999 OVC008 07/06 Q1020 NOSIG
11:00
I
7 °C 10 km+ 700 ft 350° 350° 7 kt METAR LFLC 301000Z AUTO 35007KT 9999 OVC007 07/06 Q1020 NOSIG
10:30
I
6 °C 10 km+ 700 ft 360° 360° 7 kt METAR LFLC 300930Z AUTO 36007KT 9999 BKN007 OVC016 06/06 Q1020 NOSIG
10:00
V
6 °C 10 km+ 3.900 ft 340° 340° 5 kt METAR LFLC 300900Z AUTO 34005KT 310V020 9999 SCT007 SCT017 OVC039 06/05 Q1020 TEMPO OVC007
09:30
V
6 °C 10 km+ 3.800 ft 340° 340° 4 kt METAR LFLC 300830Z AUTO 34004KT 310V010 9999 SCT006 SCT017 OVC038 06/05 Q1019 TEMPO OVC007
09:00
M
6 °C 10 km+ 1.200 ft 350° 350° 4 kt METAR LFLC 300800Z AUTO 35004KT 9999 SCT006 OVC012 06/06 Q1019 TEMPO OVC007
08:30
I
6 °C 10 km+ 700 ft 340° 340° 5 kt METAR LFLC 300730Z AUTO 34005KT 9999 BKN007 OVC012 06/05 Q1019 NOSIG
08:00
I
6 °C 10 km+ 700 ft 350° 350° 5 kt METAR LFLC 300700Z AUTO 35005KT 9999 OVC007 06/05 Q1019 TEMPO 3000 -DZ BKN004
07:30
I
6 °C 10 km+ 600 ft 330° 330° 4 kt METAR LFLC 300630Z AUTO 33004KT 9999 OVC006 06/05 Q1019 TEMPO 3000 -DZ BKN004
07:00
I
6 °C 10 km+ 600 ft Var Var 3 kt METAR LFLC 300600Z AUTO VRB03KT 9999 OVC006 06/05 Q1019 TEMPO 3000 -DZ BKN004
06:30
I
6 °C 10 km+ 700 ft Var Var 3 kt METAR LFLC 300530Z AUTO VRB03KT 9999 OVC007 06/05 Q1019 TEMPO 3000 -DZ BKN004
06:00
I
6 °C 10 km+ 600 ft Var Var 2 kt METAR LFLC 300500Z AUTO VRB02KT 9999 OVC006 06/05 Q1019 TEMPO 3000 -DZ BKN004
05:30
I
6 °C 10 km+ 600 ft Var Var 2 kt METAR LFLC 300430Z AUTO VRB02KT 9999 OVC006 06/05 Q1019 TEMPO 3000 -DZ BKN004
05:00
I
6 °C 10 km+ 800 ft Var 000° 0 kt METAR LFLC 300400Z AUTO 00000KT 9999 OVC008 06/05 Q1019 TEMPO 3000 -DZ BKN004
04:30
I
6 °C 10 km+ 900 ft Var 000° 0 kt METAR LFLC 300330Z AUTO 00000KT 9999 OVC009 06/05 Q1019 TEMPO 3000 -DZ BKN004
04:00
I
6 °C 10 km+ 800 ft Var Var 2 kt METAR LFLC 300300Z AUTO VRB02KT 9999 BKN008 OVC044 06/05 Q1019 TEMPO 3000 -DZ BKN004
03:30
I
5 °C 10 km+ 700 ft 290° 290° 3 kt METAR LFLC 300230Z AUTO 29003KT 260V330 9999 -RA BKN007 OVC045 05/05 Q1019 TEMPO 3000 -DZ BKN004
03:00
I
5 °C 6 km 700 ft Var Var 2 kt METAR LFLC 300200Z AUTO VRB02KT 6000 -RADZ BKN007 OVC028 05/05 Q1019 TEMPO 3000 -DZ BKN004
02:30
I
5 °C 10 km+ 800 ft 290° 290° 3 kt METAR LFLC 300130Z AUTO 29003KT 270V350 9999 -RA OVC008 05/05 Q1019 TEMPO 3000 -DZ BKN004
02:00
I
5 °C 10 km+ 800 ft Var 000° 0 kt METAR LFLC 300100Z AUTO 00000KT 9999 OVC008 05/04 Q1019 TEMPO 3000 -DZ BKN004
01:30
M
5 °C 10 km+ 1.000 ft 060° 060° 1 kt METAR LFLC 300030Z AUTO 06001KT 9999 OVC010 05/04 Q1020 TEMPO 3000 -DZ BKN004
01:00
M
5 °C 10 km+ 1.000 ft 070° 070° 2 kt METAR LFLC 300000Z AUTO 07002KT 9999 BKN010 BKN015 BKN035 05/04 Q1020 TEMPO 3000 -DZ BKN004
00:30
M
5 °C 10 km+ 1.100 ft 300° 300° 1 kt METAR LFLC 292330Z AUTO 30001KT 9999 BKN011 BKN037 OVC044 05/04 Q1020 TEMPO 3000 -DZ BKN004
00:00
M
5 °C 10 km+ 1.000 ft Var 000° 0 kt METAR LFLC 292300Z AUTO 00000KT 9999 BKN010 BKN016 OVC037 05/04 Q1020 TEMPO 3000 -DZ OVC004

29 de novembro de 2022

Hora Código Clima Temp. Visibilidade Tecto Vento METAR/SPECI
23:30
M
5 °C 10 km+ 1.000 ft Var Var 2 kt METAR LFLC 292230Z AUTO VRB02KT 9999 BKN010 OVC041 05/04 Q1020 TEMPO 3000 -DZ OVC004
23:00
V
5 °C 10 km+ 4.100 ft 360° 360° 1 kt METAR LFLC 292200Z AUTO 36001KT 9999 SCT010 SCT014 OVC041 05/04 Q1020 TEMPO BKN014
22:30
M
5 °C 10 km+ 1.100 ft Var 000° 0 kt METAR LFLC 292130Z AUTO 00000KT 9999 BKN011 BKN016 OVC043 05/04 Q1020 NOSIG
22:00
V
5 °C 10 km+ 4.100 ft 350° 350° 2 kt METAR LFLC 292100Z AUTO 35002KT 9999 SCT015 OVC041 05/04 Q1020 TEMPO 3000 -DZ OVC004
21:30
V
5 °C 10 km+ 4.100 ft 360° 360° 3 kt METAR LFLC 292030Z AUTO 36003KT 9999 SCT014 OVC041 05/04 Q1020 TEMPO 3000 -DZ OVC004
21:00
V
6 °C 10 km+ 4.200 ft 360° 360° 3 kt METAR LFLC 292000Z AUTO 36003KT 9999 SCT017 SCT022 OVC042 06/05 Q1020 TEMPO 3000 -DZ OVC004
20:30
V
5 °C 10 km+ 4.200 ft 350° 350° 4 kt METAR LFLC 291930Z AUTO 35004KT 9999 FEW010 OVC042 05/04 Q1020 TEMPO 3000 -DZ OVC004
20:00
M
6 °C 10 km+ 1.100 ft 020° 020° 5 kt METAR LFLC 291900Z AUTO 02005KT 350V050 9999 BKN011 BKN016 BKN041 06/05 Q1020 TEMPO 3000 -DZ OVC004
19:30
I
6 °C 10 km+ 900 ft 020° 020° 6 kt METAR LFLC 291830Z AUTO 02006KT 9999 -DZ BKN009 OVC034 06/05 Q1020 TEMPO 3000 -DZ OVC004
19:00
V
6 °C 10 km+ 3.400 ft 020° 020° 7 kt METAR LFLC 291800Z AUTO 02007KT 9999 SCT007 SCT028 BKN034 06/05 Q1019 BECMG OVC012
18:30
V
6 °C 10 km+ 3.200 ft 030° 030° 6 kt METAR LFLC 291730Z AUTO 03006KT 9999 FEW016 BKN032 OVC039 06/05 Q1019 BECMG OVC012
18:00
M
7 °C 10 km+ 1.600 ft 030° 030° 5 kt METAR LFLC 291700Z AUTO 03005KT 9999 FEW011 BKN016 BKN021 07/05 Q1019 TEMPO SHRA SCT020TCU BKN035
17:30
M
7 °C 10 km+ 2.000 ft 030° 030° 6 kt METAR LFLC 291630Z AUTO 03006KT 9999 BKN020 BKN040 BKN048 07/04 Q1019 TEMPO SHRA SCT020TCU BKN035
17:00
V
8 °C 10 km+ 5.000 ft 340° 340° 5 kt METAR LFLC 291600Z AUTO 34005KT 9999 BKN050 08/04 Q1019 TEMPO SHRA BECMG SCT020TCU BKN035
16:30
V
8 °C 10 km+ 5.600 ft 010° 010° 5 kt METAR LFLC 291530Z AUTO 01005KT 330V030 9999 FEW027 BKN056 08/04 Q1018 TEMPO SHRA BECMG SCT020TCU BKN035
16:00
V
8 °C 10 km+ 4.500 ft 340° 340° 8 kt METAR LFLC 291500Z AUTO 34008KT 310V010 9999 -RA FEW029 SCT036 OVC045 08/04 Q1018 TEMPO SHRA BECMG SCT020TCU BKN035
15:30
V
9 °C 10 km+ 4.700 ft 330° 330° 4 kt METAR LFLC 291430Z AUTO 33004KT 290V350 9999 FEW032 BKN047 BKN060 09/04 Q1018 TEMPO SHRA BECMG SCT020TCU BKN035
15:00
V
9 °C 10 km+ 5.000 ft 360° 360° 6 kt METAR LFLC 291400Z AUTO 36006KT 9999 FEW030 BKN050 BKN064 09/04 Q1018 TEMPO SHRA BECMG SCT020TCU BKN035
14:30
V
8 °C 10 km+ 3.300 ft 010° 010° 7 kt METAR LFLC 291330Z AUTO 01007KT 340V040 9999 BKN033 BKN040 BKN046 08/04 Q1018 TEMPO SHRA BECMG SCT020TCU BKN035
14:00
V
11 °C 10 km+ - 010° 010° 6 kt METAR LFLC 291300Z AUTO 01006KT 340V050 9999 FEW032 SCT048 11/04 Q1018 TEMPO SHRA BECMG SCT020TCU BKN035
13:30
V
9 °C 10 km+ 4.900 ft 360° 360° 7 kt METAR LFLC 291230Z AUTO 36007KT 9999 FEW026 SCT042 OVC049 09/03 Q1018 TEMPO SHRA BECMG SCT020TCU BKN035
13:00
V
9 °C 10 km+ 3.700 ft 010° 010° 8 kt METAR LFLC 291200Z AUTO 01008KT 9999 SCT030 BKN037 OVC049 09/03 Q1018 TEMPO SHRA BECMG SCT020TCU BKN035
12:30
V
9 °C 10 km+ 3.800 ft 010° 010° 5 kt METAR LFLC 291130Z AUTO 01005KT 320V050 9999 FEW021 SCT028 BKN038 09/04 Q1018 TEMPO SHRA BECMG SCT020TCU BKN035
12:00
M
10 °C 10 km+ 2.700 ft 010° 010° 5 kt METAR LFLC 291100Z AUTO 01005KT 300V050 9999 FEW022 BKN027 BKN035 10/04 Q1018 TEMPO SHRA BECMG SCT020TCU BKN025
11:30
V
9 °C 10 km+ 4.900 ft 340° 340° 6 kt METAR LFLC 291030Z AUTO 34006KT 290V020 9999 SCT026 SCT035 BKN049 09/04 Q1018 TEMPO SHRA BECMG SCT020TCU BKN025
11:00
V
8 °C 10 km+ 5.400 ft Var 000° 0 kt METAR LFLC 291000Z AUTO 00000KT 9999 FEW024 OVC054 08/04 Q1018 BECMG SCT020TCU BKN025
10:30
V
7 °C 10 km+ 5.200 ft Var 000° 0 kt METAR LFLC 290930Z AUTO 00000KT 9999 SCT034 OVC052 07/04 Q1018 BECMG SCT020TCU BKN025
10:00
V
5 °C 10 km+ 5.400 ft 230° 230° 2 kt METAR LFLC 290900Z AUTO 23002KT 9999 FEW030 SCT037 BKN054 05/04 Q1018 BECMG SCT020TCU BKN025
09:30
V
4 °C 10 km+ 3.900 ft Var 000° 0 kt METAR LFLC 290830Z AUTO 00000KT 9999 FEW030 BKN039 BKN049 04/03 Q1018 BECMG SCT020TCU BKN025
09:00
V
3 °C 10 km+ 6.200 ft 250° 250° 2 kt METAR LFLC 290800Z AUTO 25002KT 9999 FEW034 SCT042 BKN062 03/02 Q1018 TEMPO FEW020TCU OVC025
08:30
V
3 °C 10 km+ 4.700 ft 250° 250° 3 kt METAR LFLC 290730Z AUTO 25003KT 9999 FEW028 BKN047 BKN058 03/02 Q1018 TEMPO FEW020TCU OVC025
08:00
V
3 °C 10 km+ - Var 000° 0 kt METAR LFLC 290700Z AUTO 00000KT 9999 FEW028 SCT052 03/02 Q1017 TEMPO FEW020TCU OVC025
07:30
V
3 °C 10 km+ 5.400 ft Var Var 2 kt METAR LFLC 290630Z AUTO VRB02KT 9999 BKN054 03/02 Q1017 TEMPO FEW020TCU OVC025
07:00
V
4 °C 10 km+ 4.800 ft Var Var 2 kt METAR LFLC 290600Z AUTO VRB02KT 9999 FEW037 BKN048 BKN054 04/03 Q1017 TEMPO FEW020TCU OVC025
06:30
V
4 °C 10 km+ 5.000 ft Var 000° 0 kt METAR LFLC 290530Z AUTO 00000KT 9999 FEW028/// BKN050/// BKN064/// //////TCU 04/03 Q1017 NOSIG
06:00
V
4 °C 10 km+ 4.700 ft 110° 110° 4 kt METAR LFLC 290500Z AUTO 11004KT 9999 BKN047/// BKN120/// //////TCU 04/03 Q1017 NOSIG
05:30
V
6 °C 10 km+ 4.800 ft Var Var 2 kt METAR LFLC 290430Z AUTO VRB02KT 9999 FEW031/// SCT041/// BKN048/// ///TCU 06/04 Q1017 NOSIG
05:00
V
5 °C 10 km+ 6.200 ft Var Var 1 kt METAR LFLC 290400Z AUTO VRB01KT 9999 SCT045/// BKN062/// BKN088/// //////TCU 05/03 Q1016 TEMPO BKN040
04:30
V
5 °C 10 km+ 4.400 ft 200° 200° 3 kt METAR LFLC 290330Z AUTO 20003KT 9999 BKN044/// //////TCU 05/02 Q1016 TEMPO BKN040
04:00
V
7 °C 10 km+ 4.400 ft 280° 280° 4 kt METAR LFLC 290300Z AUTO 28004KT 9999 FEW030 SCT037 BKN044 07/03 Q1016 NOSIG
03:30
V
7 °C 10 km+ 5.000 ft Var Var 2 kt METAR LFLC 290230Z AUTO VRB02KT 9999 SCT036 BKN050 BKN062 07/03 Q1016 NOSIG
03:00
V
6 °C 10 km+ 4.800 ft Var Var 2 kt METAR LFLC 290200Z AUTO VRB02KT 9999 SCT034 BKN048 BKN058 06/03 Q1016 NOSIG
02:30
V
6 °C 10 km+ 3.000 ft Var Var 2 kt METAR LFLC 290130Z AUTO VRB02KT 9999 BKN030 BKN036 BKN046 06/03 Q1016 NOSIG
02:00
V
6 °C 10 km+ 3.500 ft Var 000° 0 kt METAR LFLC 290100Z AUTO 00000KT 9999 BKN035 BKN043 BKN049 06/03 Q1016 NOSIG
01:30
V
6 °C 10 km+ 4.500 ft 170° 170° 2 kt METAR LFLC 290030Z AUTO 17002KT 9999 SCT039 BKN045 BKN078 06/03 Q1016 NOSIG
01:00
V
6 °C 10 km+ 4.200 ft Var Var 3 kt METAR LFLC 290000Z AUTO VRB03KT 9999 BKN042 OVC090 06/02 Q1017 NOSIG
00:30
V
7 °C 10 km+ 3.000 ft Var Var 3 kt METAR LFLC 282330Z AUTO VRB03KT 9999 BKN030 BKN038 BKN190 07/02 Q1017 NOSIG
00:00
M
7 °C 10 km+ 2.800 ft 300° 300° 5 kt METAR LFLC 282300Z AUTO 30005KT 270V330 9999 BKN028 OVC160 07/03 Q1017 NOSIG

28 de novembro de 2022

Hora Código Clima Temp. Visibilidade Tecto Vento METAR/SPECI
23:30
M
8 °C 10 km+ 2.600 ft 310° 310° 5 kt METAR LFLC 282230Z AUTO 31005KT 280V350 9999 OVC026 08/03 Q1017 NOSIG
23:00
M
7 °C 10 km+ 2.900 ft 350° 350° 4 kt METAR LFLC 282200Z AUTO 35004KT 300V030 9999 BKN029/// BKN052/// OVC096/// ///TCU 07/03 Q1017 BECMG NSC
22:30
V
8 °C 10 km+ 6.200 ft 180° 180° 4 kt METAR LFLC 282130Z AUTO 18004KT 120V240 9999 FEW033/// BKN062/// BKN074/// //////TCU 08/03 Q1016 BECMG NSC
22:00
V
7 °C 10 km+ 6.400 ft 150° 150° 3 kt METAR LFLC 282100Z AUTO 15003KT 130V200 9999 FEW047/// BKN064/// OVC076/// //////TCU 07/03 Q1016 TEMPO 4000 SHRA SCT035CB BKN045
21:30
V
7 °C 10 km+ 5.200 ft 260° 260° 7 kt METAR LFLC 282030Z AUTO 26007KT 230V290 9999 SCT044 OVC052 07/03 Q1016 TEMPO 4000 SHRA SCT035CB BKN045
21:00
V
8 °C 10 km+ 4.000 ft 290° 290° 10 kt METAR LFLC 282000Z AUTO 29010KT 270V330 9999 SCT031 BKN040 BKN054 08/03 Q1016 TEMPO 4000 SHRA SCT035CB BKN045
20:30
V
8 °C 10 km+ 6.200 ft 240° 240° 6 kt METAR LFLC 281930Z AUTO 24006KT 9999 SCT033 SCT043 BKN062 08/03 Q1015 TEMPO 4000 SHRA SCT035CB BKN045
20:00
V
7 °C 10 km+ - 240° 240° 6 kt METAR LFLC 281900Z AUTO 24006KT 9999 FEW038 SCT100 07/03 Q1015 TEMPO 4000 SHRA SCT035CB BKN045
19:30
V
8 °C 10 km+ 9.400 ft 250° 250° 5 kt METAR LFLC 281830Z AUTO 25005KT 9999 FEW054 SCT078 BKN094 08/03 Q1015 TEMPO 4000 SHRA SCT035CB BKN045
19:00
V
9 °C 10 km+ - 260° 260° 6 kt METAR LFLC 281800Z AUTO 26006KT 9999 //////TCU 09/03 Q1015 TEMPO 4000 SHRA SCT035CB BKN045
18:30
V
9 °C 10 km+ 8.800 ft 230° 230° 6 kt METAR LFLC 281730Z AUTO 23006KT 9999 FEW050 BKN088 BKN230 09/04 Q1015 TEMPO 4000 SHRA SCT035CB BKN045
18:00
V
10 °C 10 km+ 8.400 ft 250° 250° 8 kt METAR LFLC 281700Z AUTO 25008KT 9999 FEW054 SCT068 BKN084 10/04 Q1015 TEMPO SCT035TCU BKN045
17:30
V
10 °C 10 km+ - 230° 230° 5 kt METAR LFLC 281630Z AUTO 23005KT 9999 NSC 10/04 Q1015 TEMPO SCT035TCU BKN045
17:00
V
11 °C 10 km+ - 220° 220° 4 kt METAR LFLC 281600Z AUTO 22004KT 9999 NSC 11/04 Q1015 TEMPO SCT035TCU BKN045
16:30
V
11 °C 10 km+ - Var Var 2 kt METAR LFLC 281530Z AUTO VRB02KT 9999 NSC 11/04 Q1015 TEMPO SCT035TCU BKN045
16:00
V
11 °C 10 km+ - Var Var 3 kt METAR LFLC 281500Z AUTO VRB03KT 9999 FEW041 11/03 Q1015 TEMPO SCT035TCU BKN045
15:30
V
12 °C 10 km+ 5.400 ft 280° 280° 4 kt METAR LFLC 281430Z AUTO 28004KT 230V330 9999 FEW038 SCT046 BKN054 12/03 Q1015 TEMPO SCT035TCU BKN045
15:00
V
12 °C 10 km+ 3.900 ft 250° 250° 5 kt METAR LFLC 281400Z AUTO 25005KT 140V280 9999 BKN039/// BKN046/// //////TCU 12/04 Q1015 TEMPO NSC
14:30
V
12 °C 10 km+ 3.800 ft Var Var 2 kt METAR LFLC 281330Z AUTO VRB02KT 9999 BKN038/// BKN044/// ///TCU 12/04 Q1015 TEMPO NSC
14:00
V
12 °C 10 km+ 4.100 ft 340° 340° 4 kt METAR LFLC 281300Z AUTO 34004KT 280V030 9999 BKN041/// BKN049/// BKN086/// ///TCU 12/04 Q1015 BECMG NSC
13:30
V
12 °C 10 km+ 3.800 ft 290° 290° 6 kt METAR LFLC 281230Z AUTO 29006KT 230V360 9999 BKN038/// BKN044/// //////TCU 12/04 Q1015 BECMG NSC
13:00
V
12 °C 10 km+ 4.000 ft Var Var 3 kt METAR LFLC 281200Z AUTO VRB03KT 9999 BKN040 BKN046 BKN060 12/04 Q1015 NOSIG
12:30
V
11 °C 10 km+ 4.100 ft Var Var 2 kt METAR LFLC 281130Z AUTO VRB02KT 9999 BKN041 BKN180 11/04 Q1015 NOSIG
12:00
V
11 °C 10 km+ - 290° 290° 6 kt METAR LFLC 281100Z AUTO 29006KT 260V320 CAVOK 11/04 Q1015 NOSIG
11:30
V
11 °C 10 km+ - 300° 300° 6 kt METAR LFLC 281030Z AUTO 30006KT 270V330 CAVOK 11/04 Q1015 NOSIG
11:00
V
11 °C 10 km+ - 280° 280° 9 kt METAR LFLC 281000Z AUTO 28009KT 9999 FEW031 SCT140 11/04 Q1015 NOSIG

Nós e terceiros acompanhamos seu comportamento na internet em nosso site com cookies. Se você continuar, nós assumimos que você concorda com nosso política de cookies.